• Join FlightAware (Why Join?)
  • Login
  • US Flag GB Flag 
00:58 EST


 

Airport Tracker/Info


-or-


 

Live Flight TrackerFlight Track Log ✈ FLG3729 ✈ 24-Apr-2013 ✈ KALB - KDTW

Flight Track Log - Related Links

Times and Time Zones

All times are in EDT time to prevent confusion due to time zone crossing. See the FLG3729 flight status page for this flight to view local times or setup timezone preferences in your user account.

Time Position Orientation Groundspeed Altitude Reporting Facility
EDT Latitude Longitude Course Direction KTS MPH feet Rate Location/Type
05:54 42.7653 -73.8061 283° West 170 196 1,100  Level Boston Center
05:54 42.8006 -73.8181 346° North 193 222 2,700 2,040 Climbing Boston Center
05:56 42.8558 -73.8872 317° Northwest 243 280 5,400 2,700 Climbing Boston Center
05:57 42.8233 -74.2628 281° West  Level FlightAware Approximate
05:57 42.9217 -73.9656 319° Northwest 258 297 9,100  Level Boston Center
05:58 42.8414 -74.3815 283° West  Level FlightAware Approximate
05:58 42.9536 -74.0569 296° West 271 312 11,300  Level Boston Center
05:59 42.8611 -74.4997 283° West  Level FlightAware Approximate
05:59 42.9664 -74.1850 278° West 315 362 12,900  Level Boston Center
06:00 42.9811 -74.3161 279° West 350 403 14,400 1,680 Climbing Boston Center
06:01 42.9953 -74.4528 278° West 366 421 16,300 1,680 Climbing Boston Center
06:02 43.0097 -74.5867 278° West 366 421 17,800 1,260 Climbing Boston Center
06:03 43.0217 -74.7122 277° West 372 428 18,900 1,140 Climbing Boston Center
06:04 43.0375 -74.8547 279° West 372 428 20,100 1,200 Climbing Boston Center
06:05 43.0492 -74.9972 276° West 372 428 21,300 1,080 Climbing Boston Center
06:06 43.0661 -75.1600 278° West 383 441 22,300 900 Climbing Boston Center
06:07 43.0792 -75.3083 277° West 394 453 23,100 840 Climbing Boston Center
06:08 43.0939 -75.4628 277° West 400 460 24,000 840 Climbing Boston Center
06:09 43.1086 -75.6114 278° West 400 460 24,800 720 Climbing Boston Center
06:10 43.1231 -75.7658 277° West 411 473 25,600 720 Climbing Boston Center
06:11 43.1386 -75.9458 277° West 406 467 26,500 660 Climbing Boston Center
06:13 43.1522 -76.3028 273° West 401 461 28,000 540 Climbing Cleveland Center
06:14 43.1408 -76.4514 264° West 401 461 28,500 540 Climbing Cleveland Center
06:15 43.1275 -76.6033 263° West 407 468 29,100 600 Climbing Cleveland Center
06:16 43.1153 -76.7319 263° West 407 468 29,700 420 Climbing Cleveland Center
06:17 43.1033 -76.8808 264° West 401 461 30,000 120 Climbing Cleveland Center
06:18 43.0872 -77.0322 262° West 401 461 30,000  Level Cleveland Center
06:19 43.0750 -77.1839 264° West 401 461 30,000  Level Cleveland Center
06:20 43.0608 -77.3381 263° West 406 467 30,000  Level Cleveland Center
06:21 43.0464 -77.4922 263° West 411 473 30,000  Level Cleveland Center
06:22 43.0314 -77.6464 262° West 411 473 30,000  Level Cleveland Center
06:23 43.0167 -77.8033 263° West 411 473 30,000  Level Cleveland Center
06:24 43.0014 -77.9572 262° West 411 473 30,000  Level Cleveland Center
06:25 42.9844 -78.1283 262° West 411 473 30,000  Level Cleveland Center
06:26 42.9686 -78.2764 262° West 411 473 30,000  Level Cleveland Center
06:27 42.9528 -78.4217 262° West 400 460 30,000  Level Cleveland Center
06:28 42.9386 -78.5639 262° West 389 448 30,000  Level Cleveland Center
06:29 42.9244 -78.7119 263° West 389 448 30,000  Level Cleveland Center
06:30 42.9017 -78.8514 257° West 389 448 30,000  Level Cleveland Center
06:31 42.8808 -78.9936 259° West 389 448 30,000  Level Cleveland Center
06:32 42.8639 -79.1386 261° West 389 448 30,000  Level Cleveland Center
06:33 42.8428 -79.2864 259° West 394 453 30,000  Level Cleveland Center
06:34 42.8172 -79.4425 257° West 401 461 30,000  Level Cleveland Center
06:35 42.7958 -79.5928 259° West 411 473 30,000 -60 Level Cleveland Center
06:36 42.7697 -79.7489 257° West 411 473 29,900 -300 Descending Cleveland Center
06:37 42.7542 -79.9075 262° West 416 479 29,400 -540 Descending Cleveland Center
06:38 42.7425 -80.0714 265° West 435 501 28,900 -540 Descending Cleveland Center
06:39 42.7367 -80.2100 267° West 428 493 28,400 -480 Descending Cleveland Center
06:40 42.7308 -80.3628 267° West 410 472 28,000 -240 Descending Cleveland Center
06:41 42.7250 -80.5125 267° West 405 466 28,000  Level Cleveland Center
06:42 42.7186 -80.6594 267° West 400 460 28,000 -420 Level Cleveland Center
06:43 42.7100 -80.8092 266° West 405 466 27,200 -1,200 Descending Cleveland Center
06:44 42.7014 -80.9533 265° West 405 466 25,600 -1,560 Descending Cleveland Center
06:45 42.6819 -81.0944 259° West 389 448 24,100 -1,500 Descending Cleveland Center
06:46 42.6667 -81.2356 262° West 384 442 22,600 -1,500 Descending Cleveland Center
06:47 42.6511 -81.3819 262° West 373 429 21,100 -1,500 Descending Cleveland Center
06:48 42.6356 -81.5172 261° West 366 421 19,600 -1,620 Descending Cleveland Center
06:49 42.6178 -81.6497 260° West 366 421 17,900 -1,500 Descending Cleveland Center
06:50 42.6019 -81.7736 260° West 355 409 16,600 -1,200 Descending Cleveland Center
06:51 42.5906 -81.8806 262° West 343 395 15,500 -1,200 Descending Cleveland Center
06:52 42.5744 -82.0014 260° West 333 383 14,300 -1,200 Descending Cleveland Center
06:53 42.5603 -82.1278 261° West 333 383 13,100 -1,260 Descending Cleveland Center
06:54 42.5483 -82.2319 261° West 335 386 12,200 -1,020 Descending Cleveland Center
06:54 42.5439 -82.2514 253° West 333 383 12,100 -300 Descending Cleveland Center
06:55 42.5367 -82.3275 263° West 316 364 12,000 -120 Descending Cleveland Center
06:55 42.5319 -82.3667 261° West 333 383 12,000  Level Cleveland Center
06:56 42.5222 -82.4397 260° West 305 351 12,000  Level Cleveland Center
06:56 42.5153 -82.4817 257° West 322 371 12,000  Level Cleveland Center
06:57 42.5014 -82.5631 257° West 304 350 12,000  Level Cleveland Center
06:57 42.4928 -82.5881 245° Southwest 311 358 12,000  Level Cleveland Center
06:58 42.4750 -82.6439 247° West 303 349 12,000  Level Cleveland Center
06:58 42.4556 -82.6911 241° Southwest 306 352 12,000  Level Cleveland Center
06:59 42.4378 -82.7494 248° West 304 350 12,000  Level Cleveland Center
06:59 42.4181 -82.7939 239° Southwest 306 352 12,000  Level Cleveland Center
07:00 42.4003 -82.8522 248° West 299 344 12,000  Level Cleveland Center
07:00 42.3828 -82.8939 240° Southwest 306 352 12,000  Level Cleveland Center
07:01 42.3583 -82.9661 245° Southwest 298 343 12,000  Level Cleveland Center
07:01 42.3475 -82.9936 242° Southwest 301 346 12,000  Level Cleveland Center
07:02 42.3186 -83.0769 245° Southwest 300 345 12,000  Level Cleveland Center
07:02 42.3119 -83.0961 245° Southwest 301 346 12,000  Level Cleveland Center
07:03 42.2975 -83.1742 256° West 304 350 12,000  Level Cleveland Center
07:03 42.2947 -83.2050 263° West 301 346 12,000  Level Cleveland Center
07:04 42.2906 -83.3031 267° West 304 350 12,000 -60 Level Cleveland Center
07:05 42.2814 -83.4178 264° West 303 349 11,900 -780 Descending Cleveland Center
07:06 42.2419 -83.5003 237° Southwest 257 296 10,500 -1,260 Descending Cleveland Center
07:07 42.1867 -83.5425 210° Southwest 231 266 9,500 -1,020 Descending Cleveland Center
07:08 42.1397 -83.5794 210° Southwest 192 221 8,600 -780 Descending Cleveland Center
07:09 42.0908 -83.6136 207° Southwest 194 223 8,000 -720 Descending Cleveland Center
07:10 42.0439 -83.6506 210° Southwest 204 235 7,200 -900 Descending Cleveland Center
07:11 41.9844 -83.6953 209° Southwest 206 237 6,100 -1,020 Descending Cleveland Center